createdAt,value
2023-02-06T00:00:48.247Z,5.97
2023-02-06T00:03:15.251Z,5.45
2023-02-06T00:05:42.177Z,7.93
2023-02-06T00:08:09.258Z,8.05
2023-02-06T00:10:36.135Z,6.93
2023-02-06T00:13:02.925Z,5.28
2023-02-06T00:15:29.765Z,7.43
2023-02-06T00:17:56.501Z,7.95
2023-02-06T00:20:25.705Z,6.70
2023-02-06T00:22:52.513Z,7.57
2023-02-06T00:25:19.228Z,7.75
2023-02-06T00:27:46.002Z,8.18
2023-02-06T00:30:13.187Z,6.32
2023-02-06T00:35:06.990Z,5.82
2023-02-06T00:37:33.682Z,5.03
2023-02-06T00:40:00.426Z,7.75
2023-02-06T00:42:27.219Z,6.05
2023-02-06T00:44:54.071Z,8.40
2023-02-06T00:47:20.825Z,6.90
2023-02-06T00:49:47.685Z,8.77
2023-02-06T00:52:14.487Z,7.40
2023-02-06T00:54:41.244Z,6.40
2023-02-06T00:57:07.975Z,7.18
2023-02-06T00:59:34.743Z,4.40
2023-02-06T01:02:01.668Z,5.95
2023-02-06T01:04:28.438Z,9.23
2023-02-06T01:06:55.198Z,7.45
2023-02-06T01:09:22.098Z,9.98
2023-02-06T01:11:48.859Z,6.93
2023-02-06T01:14:15.961Z,8.52
2023-02-06T01:19:09.829Z,4.80
2023-02-06T01:21:37.337Z,5.00
2023-02-06T01:24:04.385Z,4.43
2023-02-06T01:28:57.997Z,4.50
2023-02-06T01:31:27.667Z,4.55
2023-02-06T01:33:56.540Z,7.32
2023-02-06T01:36:23.939Z,5.82
2023-02-06T01:38:51.365Z,7.47
2023-02-06T01:41:20.058Z,7.78
2023-02-06T01:44:07.330Z,5.07
2023-02-06T01:46:34.655Z,6.38
2023-02-06T01:49:02.212Z,5.35
2023-02-06T01:51:30.534Z,5.13
2023-02-06T01:54:04.522Z,5.05
2023-02-06T01:56:41.365Z,5.88
2023-02-06T01:59:08.411Z,5.13
2023-02-06T02:04:06.457Z,8.27
2023-02-06T02:06:34.273Z,7.28
2023-02-06T02:09:02.018Z,5.50
2023-02-06T02:11:32.392Z,5.13
2023-02-06T02:14:00.478Z,5.97
2023-02-06T02:16:33.097Z,7.47
2023-02-06T02:19:32.881Z,5.45
2023-02-06T02:22:21.224Z,3.95
2023-02-06T02:25:22.473Z,6.10
2023-02-06T02:28:21.300Z,5.78
2023-02-06T02:31:19.912Z,8.25
2023-02-06T02:34:05.134Z,6.47
2023-02-06T02:36:42.176Z,4.50
2023-02-06T02:39:29.904Z,4.90
2023-02-06T02:41:56.575Z,5.57
2023-02-06T02:44:34.954Z,6.35
2023-02-06T02:47:04.968Z,6.72
2023-02-06T02:49:35.400Z,8.50
2023-02-06T02:52:03.487Z,6.18
2023-02-06T02:54:30.620Z,4.50
2023-02-06T02:59:35.705Z,4.97
2023-02-06T03:02:28.850Z,5.20
2023-02-06T03:05:05.738Z,9.02
2023-02-06T03:07:35.554Z,8.73
2023-02-06T03:10:14.856Z,5.07
2023-02-06T03:12:57.441Z,6.30
2023-02-06T03:15:35.076Z,6.80
2023-02-06T03:18:18.689Z,4.35
2023-02-06T03:20:47.619Z,5.00
2023-02-06T03:23:21.836Z,4.57
2023-02-06T03:25:54.595Z,4.00
2023-02-06T03:28:25.700Z,8.07
2023-02-06T03:30:56.939Z,9.95
2023-02-06T03:33:28.042Z,9.48
2023-02-06T03:35:56.858Z,6.72
2023-02-06T03:38:24.823Z,7.88
2023-02-06T03:40:53.492Z,5.45
2023-02-06T03:43:22.637Z,5.15
2023-02-06T03:45:55.045Z,4.22
2023-02-06T03:48:27.235Z,7.55
2023-02-06T03:50:56.939Z,7.38
2023-02-06T03:53:26.322Z,6.60
2023-02-06T03:55:58.793Z,7.35
2023-02-06T03:58:25.827Z,8.32
2023-02-06T04:00:53.151Z,7.22
2023-02-06T04:03:21.493Z,8.93
2023-02-06T04:05:48.308Z,6.18
2023-02-06T04:08:15.109Z,14.15
2023-02-06T04:10:41.811Z,8.35
2023-02-06T04:13:08.514Z,9.25
2023-02-06T04:15:35.468Z,10.65
2023-02-06T04:20:30.262Z,10.23
2023-02-06T04:22:58.152Z,10.85
2023-02-06T04:25:25.171Z,12.30
2023-02-06T04:27:52.391Z,10.40
2023-02-06T04:30:19.449Z,10.82
2023-02-06T04:35:13.181Z,13.55
2023-02-06T04:37:39.961Z,13.25
2023-02-06T04:40:07.128Z,10.57
2023-02-06T04:45:00.598Z,11.93
2023-02-06T04:47:27.389Z,16.33
2023-02-06T04:49:54.167Z,12.98
2023-02-06T04:52:20.986Z,12.38
2023-02-06T04:54:47.901Z,19.40
2023-02-06T04:57:14.662Z,14.18
2023-02-06T04:59:41.398Z,15.57
2023-02-06T05:02:08.171Z,14.48
2023-02-06T05:04:34.952Z,16.52
2023-02-06T05:07:03.414Z,14.90
2023-02-06T05:09:31.329Z,18.00
2023-02-06T05:11:58.008Z,16.52
2023-02-06T05:14:24.985Z,13.85
2023-02-06T05:16:52.293Z,18.25
2023-02-06T05:19:19.054Z,12.05
2023-02-06T05:21:45.857Z,18.70
2023-02-06T05:24:12.814Z,14.05
2023-02-06T05:26:42.229Z,16.70
2023-02-06T05:29:08.934Z,19.33
2023-02-06T05:31:36.089Z,18.75
2023-02-06T05:34:02.987Z,17.98
2023-02-06T05:36:29.815Z,18.42
2023-02-06T05:38:56.660Z,15.68
2023-02-06T05:41:23.451Z,15.13
2023-02-06T05:43:50.347Z,15.10
2023-02-06T05:46:17.224Z,15.90
2023-02-06T05:48:44.048Z,22.33
2023-02-06T05:51:10.884Z,18.02
2023-02-06T05:53:37.615Z,13.73
2023-02-06T05:56:05.256Z,15.02
2023-02-06T05:58:32.040Z,16.55
2023-02-06T06:00:58.822Z,18.60
2023-02-06T06:03:25.677Z,14.45
2023-02-06T06:05:53.452Z,23.38
2023-02-06T06:08:20.460Z,13.80
2023-02-06T06:10:51.169Z,18.63
2023-02-06T06:13:17.959Z,13.43
2023-02-06T06:15:44.712Z,13.95
2023-02-06T06:18:11.960Z,15.05
2023-02-06T06:23:05.590Z,14.15
2023-02-06T06:25:32.346Z,12.38
2023-02-06T06:27:59.253Z,12.55
2023-02-06T06:30:26.045Z,15.02
2023-02-06T06:32:53.072Z,11.82
2023-02-06T06:35:19.921Z,10.60
2023-02-06T06:37:46.862Z,15.20
2023-02-06T06:40:13.696Z,17.33
2023-02-06T06:42:40.466Z,14.80
2023-02-06T06:45:07.770Z,15.10
2023-02-06T06:50:01.658Z,17.70
2023-02-06T06:52:28.452Z,18.45
2023-02-06T06:54:55.231Z,15.75
2023-02-06T06:57:22.724Z,12.02
2023-02-06T06:59:49.897Z,12.90
2023-02-06T07:04:43.878Z,21.80
2023-02-06T07:07:10.680Z,10.40
2023-02-06T07:09:37.486Z,13.27
2023-02-06T07:12:04.553Z,12.35
2023-02-06T07:14:31.339Z,35.45
2023-02-06T07:16:59.939Z,30.65
2023-02-06T07:19:26.772Z,22.48
2023-02-06T07:21:53.768Z,15.27
2023-02-06T07:24:20.688Z,17.48
2023-02-06T07:26:47.483Z,14.20
2023-02-06T07:29:14.230Z,18.02
2023-02-06T07:31:41.004Z,19.45
2023-02-06T07:34:07.825Z,21.90
2023-02-06T07:36:34.663Z,17.85
2023-02-06T07:39:03.774Z,17.88
2023-02-06T07:41:30.720Z,18.60
2023-02-06T07:43:57.478Z,21.38
2023-02-06T07:46:24.366Z,20.55
2023-02-06T07:48:51.221Z,17.50
2023-02-06T07:51:17.991Z,21.65
2023-02-06T07:53:44.798Z,34.28
2023-02-06T07:56:18.364Z,11.63
2023-02-06T07:58:47.258Z,22.50
2023-02-06T08:01:14.179Z,16.80
2023-02-06T08:03:40.988Z,12.52
2023-02-06T08:06:12.189Z,17.83
2023-02-06T08:08:39.365Z,21.05
2023-02-06T08:11:08.121Z,16.85
2023-02-06T08:13:35.433Z,15.68
2023-02-06T08:16:15.444Z,16.65
2023-02-06T08:18:42.792Z,18.85
2023-02-06T08:21:19.252Z,22.75
2023-02-06T08:23:46.089Z,22.70
2023-02-06T08:26:19.304Z,18.10
2023-02-06T08:28:48.922Z,21.77
2023-02-06T08:31:31.703Z,20.35
2023-02-06T08:33:58.884Z,18.30
2023-02-06T08:38:53.194Z,17.90
2023-02-06T08:41:26.983Z,19.50
2023-02-06T08:43:59.137Z,15.52
2023-02-06T08:46:29.928Z,21.95
2023-02-06T08:48:58.651Z,17.38
2023-02-06T08:51:28.915Z,19.27
2023-02-06T08:54:00.440Z,20.38
2023-02-06T08:56:30.691Z,22.42
2023-02-06T08:59:01.215Z,15.85
2023-02-06T09:01:30.551Z,13.77
2023-02-06T09:03:59.702Z,18.10
2023-02-06T09:06:27.059Z,15.10
2023-02-06T09:08:54.335Z,11.60
2023-02-06T09:11:23.774Z,11.65
2023-02-06T09:13:51.260Z,9.52
2023-02-06T09:16:20.148Z,11.57
2023-02-06T09:18:48.196Z,12.05
2023-02-06T09:21:18.631Z,13.85
2023-02-06T09:23:48.399Z,13.98
2023-02-06T09:26:19.054Z,10.65
2023-02-06T09:28:45.918Z,15.55
2023-02-06T09:31:13.554Z,12.52
2023-02-06T09:33:40.727Z,12.10
2023-02-06T09:36:13.309Z,15.02
2023-02-06T09:38:44.616Z,11.00
2023-02-06T09:41:27.648Z,8.55
2023-02-06T09:44:18.438Z,9.32
2023-02-06T09:46:48.680Z,9.73
2023-02-06T09:49:47.885Z,12.88
2023-02-06T09:52:32.554Z,13.13
2023-02-06T09:55:20.551Z,16.05
2023-02-06T09:58:04.086Z,11.27
2023-02-06T10:00:54.059Z,9.77
2023-02-06T10:03:30.185Z,12.77
2023-02-06T10:06:26.947Z,11.05
2023-02-06T10:09:10.138Z,9.32
2023-02-06T10:11:57.516Z,9.50
2023-02-06T10:14:41.516Z,15.35
2023-02-06T10:17:17.535Z,10.88
2023-02-06T10:19:59.288Z,11.75
2023-02-06T10:22:30.826Z,9.18
2023-02-06T10:25:12.208Z,9.95
2023-02-06T10:27:42.899Z,10.10
2023-02-06T10:30:19.419Z,7.20
2023-02-06T10:33:14.369Z,16.88
2023-02-06T10:35:49.745Z,11.98
2023-02-06T10:38:19.285Z,11.38
2023-02-06T10:40:46.067Z,10.73
2023-02-06T10:43:51.502Z,8.40
2023-02-06T10:46:30.855Z,9.40
2023-02-06T10:49:16.019Z,10.90
2023-02-06T10:51:48.429Z,8.52
2023-02-06T10:54:31.511Z,11.90
2023-02-06T10:56:59.823Z,10.35
2023-02-06T10:59:42.317Z,10.57
2023-02-06T11:02:47.479Z,13.35
2023-02-06T11:05:22.103Z,16.98
2023-02-06T11:08:29.552Z,17.48
2023-02-06T11:10:56.783Z,14.50
2023-02-06T11:13:26.751Z,9.90
2023-02-06T11:16:02.605Z,11.90
2023-02-06T11:18:40.256Z,11.23
2023-02-06T11:21:09.149Z,17.50
2023-02-06T11:23:36.388Z,10.05
2023-02-06T11:26:19.641Z,9.35
2023-02-06T11:28:59.266Z,9.77
2023-02-06T11:31:38.406Z,12.55
2023-02-06T11:34:05.754Z,10.63
2023-02-06T11:36:36.119Z,13.18
2023-02-06T11:39:06.590Z,12.10
2023-02-06T11:41:33.891Z,9.52
2023-02-06T11:44:06.625Z,9.75
2023-02-06T11:46:37.317Z,9.43
2023-02-06T11:49:29.256Z,18.38
2023-02-06T11:52:03.964Z,12.10
2023-02-06T11:54:35.789Z,7.68
2023-02-06T11:57:22.032Z,9.75
2023-02-06T11:59:57.494Z,10.45
2023-02-06T12:02:26.421Z,10.82
2023-02-06T12:05:17.680Z,13.57
2023-02-06T12:07:55.908Z,9.35
2023-02-06T12:10:24.223Z,10.20
2023-02-06T12:12:57.872Z,9.18
2023-02-06T12:15:46.075Z,11.27
2023-02-06T12:18:26.258Z,13.20
2023-02-06T12:21:15.294Z,10.32
2023-02-06T12:24:17.870Z,10.02
2023-02-06T12:26:47.155Z,8.40
2023-02-06T12:29:22.909Z,12.02
2023-02-06T12:32:04.562Z,8.73
2023-02-06T12:34:49.800Z,8.50
2023-02-06T12:37:26.805Z,10.43
2023-02-06T12:39:53.658Z,16.35
2023-02-06T12:42:38.043Z,14.43
2023-02-06T12:45:16.793Z,10.60
2023-02-06T12:47:46.560Z,13.27
2023-02-06T12:50:38.932Z,10.95
2023-02-06T12:53:30.957Z,11.35
2023-02-06T12:56:40.419Z,14.80
2023-02-06T12:59:10.247Z,13.07
2023-02-06T13:02:01.604Z,9.40
2023-02-06T13:04:33.390Z,21.75
2023-02-06T13:07:05.176Z,17.77
2023-02-06T13:09:38.276Z,22.45
2023-02-06T13:12:24.139Z,11.25
2023-02-06T13:15:00.761Z,9.93
2023-02-06T13:17:34.341Z,11.75
2023-02-06T13:20:11.184Z,11.70
2023-02-06T13:22:44.847Z,20.35
2023-02-06T13:25:27.940Z,14.95
2023-02-06T13:28:36.417Z,9.35
2023-02-06T13:31:07.171Z,16.17
2023-02-06T13:33:44.791Z,11.13
2023-02-06T13:36:25.649Z,15.15
2023-02-06T13:38:57.100Z,9.43
2023-02-06T13:41:29.388Z,10.90
2023-02-06T13:43:56.248Z,11.90
2023-02-06T13:46:53.292Z,11.05
2023-02-06T13:49:58.454Z,10.35
2023-02-06T13:52:39.782Z,9.05
2023-02-06T13:55:24.420Z,9.35
2023-02-06T13:58:10.357Z,11.52
2023-02-06T14:00:42.094Z,8.98
2023-02-06T14:03:13.287Z,11.85
2023-02-06T14:05:54.769Z,9.63
2023-02-06T14:08:30.559Z,10.25
2023-02-06T14:11:15.827Z,12.80
2023-02-06T14:14:21.786Z,10.80
2023-02-06T14:17:08.647Z,10.05
2023-02-06T14:19:51.000Z,13.43
2023-02-06T14:22:51.881Z,10.32
2023-02-06T14:25:21.615Z,9.68
2023-02-06T14:27:59.756Z,9.25
2023-02-06T14:30:45.897Z,11.98
2023-02-06T14:33:30.641Z,8.55
2023-02-06T14:36:39.113Z,12.68
2023-02-06T14:39:33.813Z,10.75
2023-02-06T14:42:26.099Z,11.73
2023-02-06T14:45:18.672Z,17.33
2023-02-06T14:50:40.300Z,19.25
2023-02-06T14:53:49.293Z,10.93
2023-02-06T14:56:26.604Z,12.10
2023-02-06T14:58:53.832Z,10.93
2023-02-06T15:01:22.766Z,11.55
2023-02-06T15:03:52.776Z,11.43
2023-02-06T15:06:36.501Z,11.90
2023-02-06T15:09:04.437Z,12.55
2023-02-06T15:11:35.134Z,14.30
2023-02-06T15:14:06.672Z,15.38
2023-02-06T15:16:49.285Z,12.93
2023-02-06T15:19:24.742Z,11.95
2023-02-06T15:21:59.462Z,12.43
2023-02-06T15:24:47.998Z,27.80
2023-02-06T15:27:41.100Z,16.02
2023-02-06T15:30:17.922Z,12.68
2023-02-06T15:32:52.765Z,17.33
2023-02-06T15:35:33.118Z,19.95
2023-02-06T15:38:10.368Z,16.77
2023-02-06T15:40:40.033Z,14.02
2023-02-06T15:43:09.911Z,13.93
2023-02-06T15:45:39.068Z,17.77
2023-02-06T15:48:13.649Z,11.45
2023-02-06T15:50:40.737Z,9.80
2023-02-06T15:55:52.533Z,14.35
2023-02-06T15:58:20.872Z,9.55
2023-02-06T16:00:54.171Z,13.48
2023-02-06T16:05:51.119Z,13.95
2023-02-06T16:08:24.819Z,12.50
2023-02-06T16:10:56.069Z,11.52
2023-02-06T16:13:27.833Z,16.27
2023-02-06T16:16:11.656Z,13.95
2023-02-06T16:18:41.339Z,26.23
2023-02-06T16:21:30.045Z,17.48
2023-02-06T16:24:00.174Z,14.65
2023-02-06T16:26:30.127Z,20.98
2023-02-06T16:29:19.219Z,16.95
2023-02-06T16:31:46.156Z,13.88
2023-02-06T16:34:21.652Z,15.35
2023-02-06T16:36:48.674Z,18.75
2023-02-06T16:39:15.477Z,18.55
2023-02-06T16:41:43.143Z,11.70
2023-02-06T16:44:15.570Z,16.45
2023-02-06T16:46:42.920Z,19.42
2023-02-06T16:49:18.664Z,14.50
2023-02-06T16:51:47.030Z,22.38
2023-02-06T16:54:23.378Z,13.68
2023-02-06T16:56:50.839Z,14.35
2023-02-06T16:59:17.714Z,16.85
2023-02-06T17:01:44.608Z,16.55
2023-02-06T17:04:11.455Z,13.05
2023-02-06T17:06:38.313Z,15.07
2023-02-06T17:09:10.978Z,16.73
2023-02-06T17:11:38.731Z,12.88
2023-02-06T17:14:06.067Z,17.20
2023-02-06T17:16:33.725Z,16.23
2023-02-06T17:19:00.560Z,17.20
2023-02-06T17:21:32.620Z,16.35
2023-02-06T17:23:59.748Z,17.63
2023-02-06T17:26:26.950Z,15.70
2023-02-06T17:31:21.820Z,17.63
2023-02-06T17:33:48.729Z,20.25
2023-02-06T17:36:29.382Z,14.32
2023-02-06T17:39:00.053Z,15.02
2023-02-06T17:41:27.535Z,17.90
2023-02-06T17:43:54.393Z,19.60
2023-02-06T17:46:21.226Z,17.73
2023-02-06T17:48:48.099Z,14.40
2023-02-06T17:51:15.003Z,15.57
2023-02-06T17:53:41.733Z,25.48
2023-02-06T17:56:14.436Z,13.73
2023-02-06T17:58:42.788Z,15.73
2023-02-06T18:01:17.434Z,17.33
2023-02-06T18:03:46.972Z,32.75
2023-02-06T18:06:14.902Z,24.25
2023-02-06T18:08:42.194Z,18.70
2023-02-06T18:11:18.315Z,20.98
2023-02-06T18:13:47.566Z,17.08
2023-02-06T18:16:17.216Z,18.45
2023-02-06T18:18:44.513Z,19.23
2023-02-06T18:21:11.733Z,19.90
2023-02-06T18:26:08.202Z,17.63
2023-02-06T18:28:36.555Z,21.90
2023-02-06T18:31:04.068Z,18.42
2023-02-06T18:33:33.821Z,19.33
2023-02-06T18:36:05.924Z,19.35
2023-02-06T18:38:33.016Z,19.60
2023-02-06T18:41:06.694Z,17.63
2023-02-06T18:43:33.562Z,22.20
2023-02-06T18:46:06.969Z,20.67
2023-02-06T18:48:33.930Z,19.58
2023-02-06T18:51:00.911Z,19.02
2023-02-06T18:53:27.895Z,20.52
2023-02-06T18:55:58.766Z,18.63
2023-02-06T18:58:25.605Z,25.70
2023-02-06T19:00:52.643Z,17.48
2023-02-06T19:03:19.840Z,19.52
2023-02-06T19:05:46.722Z,17.42
2023-02-06T19:08:13.500Z,20.85
2023-02-06T19:10:41.506Z,22.98
2023-02-06T19:13:08.363Z,32.95
2023-02-06T19:15:36.042Z,23.40
2023-02-06T19:18:04.513Z,24.73
2023-02-06T19:20:31.719Z,24.73
2023-02-06T19:22:58.534Z,25.65
2023-02-06T19:25:32.599Z,24.75
2023-02-06T19:27:59.614Z,19.55
2023-02-06T19:30:26.452Z,21.25
2023-02-06T19:32:55.914Z,21.13
2023-02-06T19:35:22.994Z,21.13
2023-02-06T19:37:49.793Z,18.05
2023-02-06T19:40:16.867Z,21.65
2023-02-06T19:42:43.679Z,23.75
2023-02-06T19:45:10.512Z,21.08
2023-02-06T19:47:37.389Z,23.33
2023-02-06T19:50:05.424Z,21.75
2023-02-06T19:52:32.240Z,21.45
2023-02-06T19:54:58.959Z,21.85
2023-02-06T19:57:25.761Z,20.00
2023-02-06T19:59:52.579Z,20.98
2023-02-06T20:02:19.738Z,20.05
2023-02-06T20:07:13.444Z,20.48
2023-02-06T20:09:41.962Z,18.33
2023-02-06T20:12:14.221Z,20.17
2023-02-06T20:14:44.019Z,24.52
2023-02-06T20:17:11.372Z,23.02
2023-02-06T20:19:38.475Z,21.48
2023-02-06T20:22:07.731Z,21.13
2023-02-06T20:24:34.716Z,19.85
2023-02-06T20:27:05.739Z,26.98
2023-02-06T20:29:37.699Z,27.27
2023-02-06T20:32:05.750Z,19.63
2023-02-06T20:34:33.496Z,19.50
2023-02-06T20:37:00.366Z,20.55
2023-02-06T20:39:27.691Z,26.67
2023-02-06T20:41:54.598Z,23.98
2023-02-06T20:44:25.175Z,21.00
2023-02-06T20:46:52.218Z,21.08
2023-02-06T20:49:22.485Z,21.60
2023-02-06T20:51:50.456Z,22.08
2023-02-06T20:54:19.446Z,21.80
2023-02-06T20:56:46.529Z,20.15
2023-02-06T20:59:16.026Z,19.73
2023-02-06T21:01:43.510Z,19.15
2023-02-06T21:04:12.695Z,40.38
2023-02-06T21:06:39.961Z,21.23
2023-02-06T21:09:08.532Z,17.17
2023-02-06T21:11:39.384Z,22.58
2023-02-06T21:14:10.004Z,20.90
2023-02-06T21:16:38.266Z,19.58
2023-02-06T21:19:10.197Z,20.10
2023-02-06T21:21:39.579Z,16.92
2023-02-06T21:24:06.943Z,18.17
2023-02-06T21:26:33.746Z,19.42
2023-02-06T21:29:02.523Z,17.65
2023-02-06T21:31:37.569Z,20.35
2023-02-06T21:34:18.173Z,18.65
2023-02-06T21:39:16.970Z,17.23
2023-02-06T21:41:44.733Z,22.20
2023-02-06T21:44:11.569Z,17.55
2023-02-06T21:46:38.879Z,20.35
2023-02-06T21:51:33.323Z,21.63
2023-02-06T21:54:00.217Z,20.92
2023-02-06T21:56:28.378Z,22.00
2023-02-06T21:58:55.629Z,25.40
2023-02-06T22:03:51.687Z,23.63
2023-02-06T22:06:20.045Z,21.13
2023-02-06T22:08:51.414Z,27.63
2023-02-06T22:11:21.721Z,27.23
2023-02-06T22:13:49.343Z,23.42
2023-02-06T22:16:18.247Z,22.85
2023-02-06T22:18:45.356Z,19.95
2023-02-06T22:21:20.781Z,23.50
2023-02-06T22:23:49.369Z,20.95
2023-02-06T22:26:18.419Z,18.60
2023-02-06T22:28:45.763Z,18.15
2023-02-06T22:31:13.680Z,20.63
2023-02-06T22:33:40.690Z,18.55
2023-02-06T22:36:13.639Z,20.65
2023-02-06T22:38:41.588Z,21.33
2023-02-06T22:41:11.847Z,17.45
2023-02-06T22:43:39.573Z,16.40
2023-02-06T22:46:07.693Z,18.42
2023-02-06T22:48:35.408Z,19.42
2023-02-06T22:51:10.141Z,16.77
2023-02-06T22:53:38.390Z,16.10
2023-02-06T22:56:27.636Z,16.65
2023-02-06T22:58:56.481Z,18.92
2023-02-06T23:01:24.845Z,20.50
2023-02-06T23:03:53.586Z,19.60
2023-02-06T23:06:21.359Z,17.30
2023-02-06T23:08:48.335Z,17.77
2023-02-06T23:11:15.325Z,18.23
2023-02-06T23:13:42.358Z,16.75
2023-02-06T23:16:10.285Z,18.40
2023-02-06T23:18:37.681Z,23.25
2023-02-06T23:21:10.378Z,17.65
2023-02-06T23:23:37.988Z,18.17
2023-02-06T23:26:10.093Z,22.20
2023-02-06T23:28:37.287Z,19.83
2023-02-06T23:31:04.480Z,17.50
2023-02-06T23:36:10.999Z,20.17
2023-02-06T23:38:38.504Z,18.48
2023-02-06T23:41:06.320Z,19.92
2023-02-06T23:43:33.303Z,19.13
2023-02-06T23:46:00.199Z,17.95
2023-02-06T23:48:27.067Z,19.48
2023-02-06T23:50:53.838Z,19.98
2023-02-06T23:53:20.590Z,16.75
2023-02-06T23:55:47.645Z,18.20
2023-02-06T23:58:14.586Z,19.55
